sensor_id;sensor_type;location;lat;lon;timestamp;pressure;altitude;pressure_sealevel;temperature;humidity
68525;BME280;55524;51.380;13.372;2023-03-03T00:01:44;101211.81;;;-2.14;100.00
68525;BME280;55524;51.380;13.372;2023-03-03T00:04:16;101223.00;;;-2.16;100.00
68525;BME280;55524;51.380;13.372;2023-03-03T00:06:47;101226.41;;;-2.17;100.00
68525;BME280;55524;51.380;13.372;2023-03-03T00:09:13;101228.38;;;-2.09;100.00
68525;BME280;55524;51.380;13.372;2023-03-03T00:11:39;101224.97;;;-2.06;100.00
68525;BME280;55524;51.380;13.372;2023-03-03T00:14:20;101226.88;;;-2.01;100.00
68525;BME280;55524;51.380;13.372;2023-03-03T00:16:47;101219.13;;;-1.99;100.00
68525;BME280;55524;51.380;13.372;2023-03-03T00:19:17;101225.25;;;-1.95;100.00
68525;BME280;55524;51.380;13.372;2023-03-03T00:21:48;101219.09;;;-2.01;100.00
68525;BME280;55524;51.380;13.372;2023-03-03T00:24:24;101218.97;;;-2.05;100.00
68525;BME280;55524;51.380;13.372;2023-03-03T00:27:09;101224.19;;;-2.04;100.00
68525;BME280;55524;51.380;13.372;2023-03-03T00:29:47;101217.16;;;-2.08;100.00
68525;BME280;55524;51.380;13.372;2023-03-03T00:34:44;101218.88;;;-2.08;100.00
68525;BME280;55524;51.380;13.372;2023-03-03T00:42:33;101230.22;;;-2.03;100.00
68525;BME280;55524;51.380;13.372;2023-03-03T00:45:04;101237.16;;;-2.02;100.00
68525;BME280;55524;51.380;13.372;2023-03-03T00:47:43;101231.22;;;-1.98;100.00
68525;BME280;55524;51.380;13.372;2023-03-03T00:52:44;101235.38;;;-2.05;100.00
68525;BME280;55524;51.380;13.372;2023-03-03T00:55:11;101231.09;;;-2.03;100.00
68525;BME280;55524;51.380;13.372;2023-03-03T00:57:37;101231.94;;;-2.04;100.00
68525;BME280;55524;51.380;13.372;2023-03-03T01:00:04;101226.78;;;-2.04;100.00
68525;BME280;55524;51.380;13.372;2023-03-03T01:02:31;101218.34;;;-1.96;100.00
68525;BME280;55524;51.380;13.372;2023-03-03T01:05:08;101221.59;;;-2.04;100.00
68525;BME280;55524;51.380;13.372;2023-03-03T01:07:37;101224.31;;;-1.99;100.00
68525;BME280;55524;51.380;13.372;2023-03-03T01:10:04;101216.59;;;-1.98;100.00
68525;BME280;55524;51.380;13.372;2023-03-03T01:12:31;101216.84;;;-1.87;100.00
68525;BME280;55524;51.380;13.372;2023-03-03T01:14:57;101221.03;;;-1.92;100.00
68525;BME280;55524;51.380;13.372;2023-03-03T01:17:23;101213.81;;;-2.04;100.00
68525;BME280;55524;51.380;13.372;2023-03-03T01:19:50;101211.31;;;-2.01;100.00
68525;BME280;55524;51.380;13.372;2023-03-03T01:22:16;101213.03;;;-2.01;100.00
68525;BME280;55524;51.380;13.372;2023-03-03T01:24:42;101210.66;;;-1.93;100.00
68525;BME280;55524;51.380;13.372;2023-03-03T01:27:14;101207.03;;;-1.99;100.00
68525;BME280;55524;51.380;13.372;2023-03-03T01:29:42;101209.03;;;-1.88;100.00
68525;BME280;55524;51.380;13.372;2023-03-03T01:32:08;101210.50;;;-1.98;100.00
68525;BME280;55524;51.380;13.372;2023-03-03T01:34:34;101198.56;;;-1.93;100.00
68525;BME280;55524;51.380;13.372;2023-03-03T01:37:00;101205.31;;;-1.98;100.00
68525;BME280;55524;51.380;13.372;2023-03-03T01:39:27;101204.63;;;-1.92;100.00
68525;BME280;55524;51.380;13.372;2023-03-03T01:41:53;101204.66;;;-1.91;100.00
68525;BME280;55524;51.380;13.372;2023-03-03T01:44:19;101197.72;;;-1.92;100.00
68525;BME280;55524;51.380;13.372;2023-03-03T01:47:04;101201.41;;;-1.82;100.00
68525;BME280;55524;51.380;13.372;2023-03-03T01:52:33;101198.03;;;-1.80;100.00
68525;BME280;55524;51.380;13.372;2023-03-03T01:55:10;101185.06;;;-1.81;100.00
68525;BME280;55524;51.380;13.372;2023-03-03T01:57:41;101187.69;;;-1.80;100.00
68525;BME280;55524;51.380;13.372;2023-03-03T02:00:13;101188.53;;;-1.79;100.00
68525;BME280;55524;51.380;13.372;2023-03-03T02:02:45;101196.47;;;-1.73;100.00
68525;BME280;55524;51.380;13.372;2023-03-03T02:05:13;101196.41;;;-1.76;100.00
68525;BME280;55524;51.380;13.372;2023-03-03T02:07:40;101195.72;;;-1.69;100.00
68525;BME280;55524;51.380;13.372;2023-03-03T02:10:15;101211.38;;;-1.64;100.00
68525;BME280;55524;51.380;13.372;2023-03-03T02:12:53;101209.44;;;-1.73;100.00
68525;BME280;55524;51.380;13.372;2023-03-03T02:17:54;101208.78;;;-1.64;100.00
68525;BME280;55524;51.380;13.372;2023-03-03T02:20:45;101193.91;;;-1.73;100.00
68525;BME280;55524;51.380;13.372;2023-03-03T02:28:24;101189.81;;;-1.63;100.00
68525;BME280;55524;51.380;13.372;2023-03-03T02:30:55;101211.28;;;-1.67;100.00
68525;BME280;55524;51.380;13.372;2023-03-03T02:33:21;101203.69;;;-1.61;100.00
68525;BME280;55524;51.380;13.372;2023-03-03T02:35:54;101211.47;;;-1.60;100.00
68525;BME280;55524;51.380;13.372;2023-03-03T02:38:26;101219.31;;;-1.58;100.00
68525;BME280;55524;51.380;13.372;2023-03-03T02:41:10;101212.31;;;-1.61;100.00
68525;BME280;55524;51.380;13.372;2023-03-03T02:44:00;101208.00;;;-1.62;100.00
68525;BME280;55524;51.380;13.372;2023-03-03T02:46:33;101202.75;;;-1.63;100.00
68525;BME280;55524;51.380;13.372;2023-03-03T02:49:01;101199.28;;;-1.65;100.00
68525;BME280;55524;51.380;13.372;2023-03-03T02:51:28;101202.63;;;-1.69;100.00
68525;BME280;55524;51.380;13.372;2023-03-03T02:53:55;101199.28;;;-1.64;100.00
68525;BME280;55524;51.380;13.372;2023-03-03T02:56:27;101195.72;;;-1.69;100.00
68525;BME280;55524;51.380;13.372;2023-03-03T02:58:56;101193.97;;;-1.70;100.00
68525;BME280;55524;51.380;13.372;2023-03-03T03:01:23;101186.13;;;-1.73;100.00
68525;BME280;55524;51.380;13.372;2023-03-03T03:03:49;101192.84;;;-1.80;100.00
68525;BME280;55524;51.380;13.372;2023-03-03T03:06:16;101192.00;;;-1.79;100.00
68525;BME280;55524;51.380;13.372;2023-03-03T03:08:42;101183.53;;;-1.73;100.00
68525;BME280;55524;51.380;13.372;2023-03-03T03:11:08;101186.16;;;-1.71;100.00
68525;BME280;55524;51.380;13.372;2023-03-03T03:13:35;101181.91;;;-1.69;100.00
68525;BME280;55524;51.380;13.372;2023-03-03T03:16:01;101187.13;;;-1.66;100.00
68525;BME280;55524;51.380;13.372;2023-03-03T03:18:28;101196.28;;;-1.81;100.00
68525;BME280;55524;51.380;13.372;2023-03-03T03:20:54;101198.13;;;-1.77;100.00
68525;BME280;55524;51.380;13.372;2023-03-03T03:23:20;101196.50;;;-1.71;100.00
68525;BME280;55524;51.380;13.372;2023-03-03T03:25:51;101205.97;;;-1.74;100.00
68525;BME280;55524;51.380;13.372;2023-03-03T03:28:17;101199.72;;;-1.82;100.00
68525;BME280;55524;51.380;13.372;2023-03-03T03:30:44;101205.03;;;-1.77;100.00
68525;BME280;55524;51.380;13.372;2023-03-03T03:33:31;101202.47;;;-1.76;100.00
68525;BME280;55524;51.380;13.372;2023-03-03T03:36:07;101216.22;;;-1.78;100.00
68525;BME280;55524;51.380;13.372;2023-03-03T03:38:36;101211.84;;;-1.81;100.00
68525;BME280;55524;51.380;13.372;2023-03-03T03:41:04;101211.97;;;-1.75;100.00
68525;BME280;55524;51.380;13.372;2023-03-03T03:43:31;101211.97;;;-1.75;100.00
68525;BME280;55524;51.380;13.372;2023-03-03T03:45:57;101212.88;;;-1.74;100.00
68525;BME280;55524;51.380;13.372;2023-03-03T03:48:24;101212.72;;;-1.80;100.00
68525;BME280;55524;51.380;13.372;2023-03-03T03:50:50;101211.88;;;-1.79;100.00
68525;BME280;55524;51.380;13.372;2023-03-03T03:53:17;101221.41;;;-1.78;100.00
68525;BME280;55524;51.380;13.372;2023-03-03T03:55:47;101229.28;;;-1.74;100.00
68525;BME280;55524;51.380;13.372;2023-03-03T03:58:15;101229.22;;;-1.77;100.00
68525;BME280;55524;51.380;13.372;2023-03-03T04:00:43;101233.50;;;-1.77;100.00
68525;BME280;55524;51.380;13.372;2023-03-03T04:03:10;101233.47;;;-1.79;100.00
68525;BME280;55524;51.380;13.372;2023-03-03T04:05:46;101231.69;;;-1.81;100.00
68525;BME280;55524;51.380;13.372;2023-03-03T04:08:15;101226.38;;;-1.86;100.00
68525;BME280;55524;51.380;13.372;2023-03-03T04:10:41;101238.59;;;-1.82;100.00
68525;BME280;55524;51.380;13.372;2023-03-03T04:13:11;101236.59;;;-1.90;100.00
68525;BME280;55524;51.380;13.372;2023-03-03T04:15:37;101235.03;;;-1.85;100.00
68525;BME280;55524;51.380;13.372;2023-03-03T04:18:03;101237.63;;;-1.85;100.00
68525;BME280;55524;51.380;13.372;2023-03-03T04:20:30;101231.31;;;-1.95;100.00
68525;BME280;55524;51.380;13.372;2023-03-03T04:22:56;101233.09;;;-1.94;100.00
68525;BME280;55524;51.380;13.372;2023-03-03T04:25:26;101228.78;;;-1.93;100.00
68525;BME280;55524;51.380;13.372;2023-03-03T04:27:52;101232.94;;;-1.99;100.00
68525;BME280;55524;51.380;13.372;2023-03-03T04:30:19;101233.91;;;-1.95;100.00
68525;BME280;55524;51.380;13.372;2023-03-03T04:32:48;101232.88;;;-2.02;100.00
68525;BME280;55524;51.380;13.372;2023-03-03T04:35:15;101241.75;;;-1.92;100.00
68525;BME280;55524;51.380;13.372;2023-03-03T04:37:42;101251.28;;;-1.91;100.00
68525;BME280;55524;51.380;13.372;2023-03-03T04:40:09;101249.53;;;-1.92;100.00
68525;BME280;55524;51.380;13.372;2023-03-03T04:42:35;101244.25;;;-1.95;100.00
68525;BME280;55524;51.380;13.372;2023-03-03T04:45:02;101235.41;;;-2.03;100.00
68525;BME280;55524;51.380;13.372;2023-03-03T04:47:29;101244.16;;;-1.98;100.00
68525;BME280;55524;51.380;13.372;2023-03-03T04:49:56;101241.41;;;-2.06;100.00
68525;BME280;55524;51.380;13.372;2023-03-03T04:52:22;101240.38;;;-2.11;100.00
68525;BME280;55524;51.380;13.372;2023-03-03T04:54:48;101247.38;;;-2.08;100.00
68525;BME280;55524;51.380;13.372;2023-03-03T04:57:14;101245.41;;;-2.17;100.00
68525;BME280;55524;51.380;13.372;2023-03-03T04:59:41;101255.69;;;-2.20;100.00
68525;BME280;55524;51.380;13.372;2023-03-03T05:02:07;101238.63;;;-2.13;100.00
68525;BME280;55524;51.380;13.372;2023-03-03T05:04:33;101249.75;;;-2.16;100.00
68525;BME280;55524;51.380;13.372;2023-03-03T05:07:00;101243.84;;;-2.10;100.00
68525;BME280;55524;51.380;13.372;2023-03-03T05:09:27;101249.75;;;-2.16;100.00
68525;BME280;55524;51.380;13.372;2023-03-03T05:11:54;101250.53;;;-2.18;100.00
68525;BME280;55524;51.380;13.372;2023-03-03T05:14:21;101255.78;;;-2.17;100.00
68525;BME280;55524;51.380;13.372;2023-03-03T05:16:47;101254.00;;;-2.18;100.00
68525;BME280;55524;51.380;13.372;2023-03-03T05:19:13;101246.19;;;-2.19;100.00
68525;BME280;55524;51.380;13.372;2023-03-03T05:21:42;101244.34;;;-2.24;100.00
68525;BME280;55524;51.380;13.372;2023-03-03T05:24:15;101256.41;;;-2.26;100.00
68525;BME280;55524;51.380;13.372;2023-03-03T05:26:42;101249.44;;;-2.27;100.00
68525;BME280;55524;51.380;13.372;2023-03-03T05:29:09;101241.78;;;-2.24;100.00
68525;BME280;55524;51.380;13.372;2023-03-03T05:31:35;101240.91;;;-2.24;100.00
68525;BME280;55524;51.380;13.372;2023-03-03T05:34:01;101248.66;;;-2.24;100.00
68525;BME280;55524;51.380;13.372;2023-03-03T05:36:28;101250.69;;;-2.44;100.00
68525;BME280;55524;51.380;13.372;2023-03-03T05:38:54;101242.97;;;-2.42;100.00
68525;BME280;55524;51.380;13.372;2023-03-03T05:41:23;101246.34;;;-2.45;100.00
68525;BME280;55524;51.380;13.372;2023-03-03T05:43:50;101241.03;;;-2.50;100.00
68525;BME280;55524;51.380;13.372;2023-03-03T05:46:22;101236.81;;;-2.46;100.00
68525;BME280;55524;51.380;13.372;2023-03-03T05:48:49;101243.03;;;-2.41;100.00
68525;BME280;55524;51.380;13.372;2023-03-03T05:51:15;101251.81;;;-2.34;100.00
68525;BME280;55524;51.380;13.372;2023-03-03T05:53:42;101254.38;;;-2.36;100.00
68525;BME280;55524;51.380;13.372;2023-03-03T05:56:08;101255.22;;;-2.37;100.00
68525;BME280;55524;51.380;13.372;2023-03-03T05:58:34;101253.38;;;-2.41;100.00
68525;BME280;55524;51.380;13.372;2023-03-03T06:01:00;101267.53;;;-2.28;100.00
68525;BME280;55524;51.380;13.372;2023-03-03T06:03:36;101272.63;;;-2.31;100.00
68525;BME280;55524;51.380;13.372;2023-03-03T06:06:03;101270.03;;;-2.31;100.00
68525;BME280;55524;51.380;13.372;2023-03-03T06:08:50;101270.13;;;-2.28;100.00
68525;BME280;55524;51.380;13.372;2023-03-03T06:11:22;101270.13;;;-2.28;100.00
68525;BME280;55524;51.380;13.372;2023-03-03T06:13:48;101258.91;;;-2.29;100.00
68525;BME280;55524;51.380;13.372;2023-03-03T06:16:14;101272.84;;;-2.24;100.00
68525;BME280;55524;51.380;13.372;2023-03-03T06:18:41;101276.50;;;-2.15;100.00
68525;BME280;55524;51.380;13.372;2023-03-03T06:21:25;101264.97;;;-2.27;100.00
68525;BME280;55524;51.380;13.372;2023-03-03T06:23:52;101274.56;;;-2.23;100.00
68525;BME280;55524;51.380;13.372;2023-03-03T06:26:24;101270.28;;;-2.22;100.00
68525;BME280;55524;51.380;13.372;2023-03-03T06:29:04;101267.75;;;-2.20;100.00
68525;BME280;55524;51.380;13.372;2023-03-03T06:31:33;101267.00;;;-2.16;100.00
68525;BME280;55524;51.380;13.372;2023-03-03T06:34:04;101272.19;;;-2.15;100.00
68525;BME280;55524;51.380;13.372;2023-03-03T06:36:31;101268.75;;;-2.15;100.00
68525;BME280;55524;51.380;13.372;2023-03-03T06:39:00;101278.59;;;-2.02;100.00
68525;BME280;55524;51.380;13.372;2023-03-03T06:41:27;101294.81;;;-2.09;100.00
68525;BME280;55524;51.380;13.372;2023-03-03T06:43:53;101293.31;;;-2.01;100.00
68525;BME280;55524;51.380;13.372;2023-03-03T06:46:22;101279.63;;;-1.97;100.00
68525;BME280;55524;51.380;13.372;2023-03-03T06:48:49;101281.25;;;-1.99;100.00
68525;BME280;55524;51.380;13.372;2023-03-03T06:54:18;101296.03;;;-1.96;100.00
68525;BME280;55524;51.380;13.372;2023-03-03T06:56:46;101293.88;;;-1.80;100.00
68525;BME280;55524;51.380;13.372;2023-03-03T06:59:17;101300.88;;;-1.76;100.00
68525;BME280;55524;51.380;13.372;2023-03-03T07:01:46;101295.69;;;-1.77;100.00
68525;BME280;55524;51.380;13.372;2023-03-03T07:04:28;101295.63;;;-1.79;100.00
68525;BME280;55524;51.380;13.372;2023-03-03T07:06:57;101310.34;;;-1.78;100.00
68525;BME280;55524;51.380;13.372;2023-03-03T07:09:27;101304.44;;;-1.72;100.00
68525;BME280;55524;51.380;13.372;2023-03-03T07:12:01;101316.63;;;-1.68;100.00
68525;BME280;55524;51.380;13.372;2023-03-03T07:14:44;101314.66;;;-1.78;100.00
68525;BME280;55524;51.380;13.372;2023-03-03T07:17:19;101315.53;;;-1.78;100.00
68525;BME280;55524;51.380;13.372;2023-03-03T07:19:46;101317.31;;;-1.75;100.00
68525;BME280;55524;51.380;13.372;2023-03-03T07:22:24;101330.47;;;-1.67;100.00
68525;BME280;55524;51.380;13.372;2023-03-03T07:25:25;101325.19;;;-1.70;100.00
68525;BME280;55524;51.380;13.372;2023-03-03T07:27:57;101329.28;;;-1.80;100.00
68525;BME280;55524;51.380;13.372;2023-03-03T07:30:26;101327.56;;;-1.80;100.00
68525;BME280;55524;51.380;13.372;2023-03-03T07:32:56;101335.44;;;-1.75;100.00
68525;BME280;55524;51.380;13.372;2023-03-03T07:35:39;101319.09;;;-1.74;100.00
68525;BME280;55524;51.380;13.372;2023-03-03T07:40:54;101318.94;;;-1.79;100.00
68525;BME280;55524;51.380;13.372;2023-03-03T07:43:30;101322.44;;;-1.78;100.00
68525;BME280;55524;51.380;13.372;2023-03-03T07:48:43;101324.13;;;-1.79;100.00
68525;BME280;55524;51.380;13.372;2023-03-03T07:51:21;101320.84;;;-1.71;100.00
68525;BME280;55524;51.380;13.372;2023-03-03T07:56:43;101325.47;;;-1.61;100.00
68525;BME280;55524;51.380;13.372;2023-03-03T08:01:52;101332.38;;;-1.60;100.00
68525;BME280;55524;51.380;13.372;2023-03-03T08:04:43;101338.75;;;-1.49;100.00
68525;BME280;55524;51.380;13.372;2023-03-03T08:07:20;101331.50;;;-1.62;100.00
68525;BME280;55524;51.380;13.372;2023-03-03T08:10:00;101340.00;;;-1.66;100.00
68525;BME280;55524;51.380;13.372;2023-03-03T08:15:22;101337.66;;;-1.57;100.00
68525;BME280;55524;51.380;13.372;2023-03-03T08:17:52;101339.59;;;-1.50;100.00
68525;BME280;55524;51.380;13.372;2023-03-03T08:22:58;101346.28;;;-1.58;100.00
68525;BME280;55524;51.380;13.372;2023-03-03T08:25:25;101348.81;;;-1.60;100.00
68525;BME280;55524;51.380;13.372;2023-03-03T08:27:51;101341.00;;;-1.61;100.00
68525;BME280;55524;51.380;13.372;2023-03-03T08:30:23;101351.59;;;-1.52;100.00
68525;BME280;55524;51.380;13.372;2023-03-03T08:32:52;101355.88;;;-1.54;100.00
68525;BME280;55524;51.380;13.372;2023-03-03T08:35:38;101359.34;;;-1.54;100.00
68525;BME280;55524;51.380;13.372;2023-03-03T08:38:07;101365.50;;;-1.50;100.00
68525;BME280;55524;51.380;13.372;2023-03-03T08:40:38;101362.00;;;-1.51;100.00
68525;BME280;55524;51.380;13.372;2023-03-03T08:43:08;101367.03;;;-1.57;100.00
68525;BME280;55524;51.380;13.372;2023-03-03T08:45:44;101358.53;;;-1.51;100.00
68525;BME280;55524;51.380;13.372;2023-03-03T08:48:31;101359.63;;;-1.43;100.00
68525;BME280;55524;51.380;13.372;2023-03-03T08:51:01;101354.50;;;-1.41;100.00
68525;BME280;55524;51.380;13.372;2023-03-03T08:53:33;101351.81;;;-1.44;100.00
68525;BME280;55524;51.380;13.372;2023-03-03T08:56:02;101360.63;;;-1.38;100.00
68525;BME280;55524;51.380;13.372;2023-03-03T08:58:28;101359.56;;;-1.46;100.00
68525;BME280;55524;51.380;13.372;2023-03-03T09:00:58;101362.25;;;-1.41;100.00
68525;BME280;55524;51.380;13.372;2023-03-03T09:03:39;101366.91;;;-1.30;100.00
68525;BME280;55524;51.380;13.372;2023-03-03T09:06:26;101372.09;;;-1.28;100.00
68525;BME280;55524;51.380;13.372;2023-03-03T09:09:21;101366.91;;;-1.28;100.00
68525;BME280;55524;51.380;13.372;2023-03-03T09:11:57;101368.72;;;-1.26;100.00
68525;BME280;55524;51.380;13.372;2023-03-03T09:14:27;101367.97;;;-1.21;100.00
68525;BME280;55524;51.380;13.372;2023-03-03T09:16:57;101376.53;;;-1.24;100.00
68525;BME280;55524;51.380;13.372;2023-03-03T09:22:22;101377.38;;;-1.25;100.00
68525;BME280;55524;51.380;13.372;2023-03-03T09:24:52;101372.41;;;-1.16;100.00
68525;BME280;55524;51.380;13.372;2023-03-03T09:27:33;101377.88;;;-1.05;100.00
68525;BME280;55524;51.380;13.372;2023-03-03T09:32:53;101364.56;;;-1.19;100.00
68525;BME280;55524;51.380;13.372;2023-03-03T09:37:54;101362.41;;;-1.02;100.00
68525;BME280;55524;51.380;13.372;2023-03-03T09:49:13;101357.94;;;-0.71;100.00
68525;BME280;55524;51.380;13.372;2023-03-03T10:03:14;101366.91;;;-0.57;100.00
68525;BME280;55524;51.380;13.372;2023-03-03T10:06:02;101377.38;;;-0.54;100.00
68525;BME280;55524;51.380;13.372;2023-03-03T10:13:57;101379.38;;;-0.42;100.00
68525;BME280;55524;51.380;13.372;2023-03-03T10:16:43;101381.22;;;-0.37;100.00
68525;BME280;55524;51.380;13.372;2023-03-03T10:24:44;101385.63;;;-0.33;100.00
68525;BME280;55524;51.380;13.372;2023-03-03T10:27:37;101386.59;;;-0.29;100.00
68525;BME280;55524;51.380;13.372;2023-03-03T10:30:30;101382.31;;;-0.27;100.00
68525;BME280;55524;51.380;13.372;2023-03-03T10:58:04;101394.19;;;0.01;100.00
68525;BME280;55524;51.380;13.372;2023-03-03T11:21:15;101375.94;;;-0.01;100.00
68525;BME280;55524;51.380;13.372;2023-03-03T11:24:18;101371.81;;;0.09;100.00
68525;BME280;55524;51.380;13.372;2023-03-03T11:32:26;101369.56;;;0.26;100.00
68525;BME280;55524;51.380;13.372;2023-03-03T11:37:45;101372.38;;;0.37;100.00
68525;BME280;55524;51.380;13.372;2023-03-03T11:46:31;101375.63;;;0.27;100.00
68525;BME280;55524;51.380;13.372;2023-03-03T11:49:04;101373.03;;;0.27;100.00
68525;BME280;55524;51.380;13.372;2023-03-03T11:54:25;101364.53;;;0.35;100.00
68525;BME280;55524;51.380;13.372;2023-03-03T12:02:23;101340.19;;;0.32;100.00
68525;BME280;55524;51.380;13.372;2023-03-03T12:05:17;101347.44;;;0.48;100.00
68525;BME280;55524;51.380;13.372;2023-03-03T12:08:17;101341.59;;;0.60;100.00
68525;BME280;55524;51.380;13.372;2023-03-03T12:13:38;101343.66;;;0.79;100.00
68525;BME280;55524;51.380;13.372;2023-03-03T12:19:08;101339.34;;;0.80;100.00
68525;BME280;55524;51.380;13.372;2023-03-03T12:22:00;101335.97;;;0.85;100.00
68525;BME280;55524;51.380;13.372;2023-03-03T12:35:46;101323.88;;;0.87;100.00
68525;BME280;55524;51.380;13.372;2023-03-03T12:38:39;101327.38;;;0.91;100.00
68525;BME280;55524;51.380;13.372;2023-03-03T12:46:41;101323.25;;;1.04;100.00
68525;BME280;55524;51.380;13.372;2023-03-03T12:49:10;101315.28;;;0.93;100.00
68525;BME280;55524;51.380;13.372;2023-03-03T12:54:45;101308.22;;;0.86;100.00
68525;BME280;55524;51.380;13.372;2023-03-03T12:57:43;101311.00;;;0.96;100.00
68525;BME280;55524;51.380;13.372;2023-03-03T13:14:43;101305.03;;;1.04;100.00
68525;BME280;55524;51.380;13.372;2023-03-03T13:20:23;101299.97;;;1.13;100.00
68525;BME280;55524;51.380;13.372;2023-03-03T13:23:09;101295.75;;;1.22;100.00
68525;BME280;55524;51.380;13.372;2023-03-03T13:28:48;101287.81;;;1.13;100.00
68525;BME280;55524;51.380;13.372;2023-03-03T13:31:21;101286.94;;;1.11;100.00
68525;BME280;55524;51.380;13.372;2023-03-03T13:33:58;101284.41;;;1.17;100.00
68525;BME280;55524;51.380;13.372;2023-03-03T13:36:33;101287.22;;;1.31;100.00
68525;BME280;55524;51.380;13.372;2023-03-03T13:39:26;101269.00;;;1.31;100.00
68525;BME280;55524;51.380;13.372;2023-03-03T13:42:11;101272.16;;;1.10;100.00
68525;BME280;55524;51.380;13.372;2023-03-03T13:44:45;101271.50;;;1.23;100.00
68525;BME280;55524;51.380;13.372;2023-03-03T13:53:51;101282.03;;;1.33;100.00
68525;BME280;55524;51.380;13.372;2023-03-03T13:56:46;101268.91;;;1.23;100.00
68525;BME280;55524;51.380;13.372;2023-03-03T13:59:35;101259.31;;;1.22;100.00
68525;BME280;55524;51.380;13.372;2023-03-03T14:06:36;101253.44;;;1.37;100.00
68525;BME280;55524;51.380;13.372;2023-03-03T14:08:43;101245.69;;;1.39;100.00
68525;BME280;55524;51.380;13.372;2023-03-03T14:11:23;101238.75;;;1.42;100.00
68525;BME280;55524;51.380;13.372;2023-03-03T14:24:26;101241.28;;;1.36;100.00
68525;BME280;55524;51.380;13.372;2023-03-03T14:26:54;101237.66;;;1.27;100.00
68525;BME280;55524;51.380;13.372;2023-03-03T14:29:29;101241.28;;;1.35;100.00
68525;BME280;55524;51.380;13.372;2023-03-03T14:32:02;101253.50;;;1.40;100.00
68525;BME280;55524;51.380;13.372;2023-03-03T14:34:44;101244.91;;;1.47;100.00
68525;BME280;55524;51.380;13.372;2023-03-03T14:37:43;101243.13;;;1.45;100.00
68525;BME280;55524;51.380;13.372;2023-03-03T14:40:20;101240.41;;;1.36;100.00
68525;BME280;55524;51.380;13.372;2023-03-03T14:42:55;101249.97;;;1.35;100.00
68525;BME280;55524;51.380;13.372;2023-03-03T14:47:57;101244.59;;;1.23;100.00
68525;BME280;55524;51.380;13.372;2023-03-03T14:50:37;101236.69;;;1.18;100.00
68525;BME280;55524;51.380;13.372;2023-03-03T14:55:47;101249.69;;;1.17;100.00
68525;BME280;55524;51.380;13.372;2023-03-03T14:58:34;101238.38;;;1.13;100.00
68525;BME280;55524;51.380;13.372;2023-03-03T15:01:21;101241.88;;;1.15;100.00
68525;BME280;55524;51.380;13.372;2023-03-03T15:04:00;101231.59;;;1.23;100.00
68525;BME280;55524;51.380;13.372;2023-03-03T15:06:44;101231.53;;;1.21;100.00
68525;BME280;55524;51.380;13.372;2023-03-03T15:09:40;101234.19;;;1.25;100.00
68525;BME280;55524;51.380;13.372;2023-03-03T15:12:37;101230.75;;;1.27;100.00
68525;BME280;55524;51.380;13.372;2023-03-03T15:17:58;101235.06;;;1.25;100.00
68525;BME280;55524;51.380;13.372;2023-03-03T15:26:14;101233.44;;;1.32;100.00
68525;BME280;55524;51.380;13.372;2023-03-03T15:37:55;101231.59;;;1.23;100.00
68525;BME280;55524;51.380;13.372;2023-03-03T15:45:52;101230.34;;;0.96;100.00
68525;BME280;55524;51.380;13.372;2023-03-03T15:54:39;101224.31;;;1.02;100.00
68525;BME280;55524;51.380;13.372;2023-03-03T16:02:55;101226.00;;;0.97;100.00
68525;BME280;55524;51.380;13.372;2023-03-03T16:08:11;101212.94;;;0.92;100.00
68525;BME280;55524;51.380;13.372;2023-03-03T16:11:21;101208.69;;;0.99;100.00
68525;BME280;55524;51.380;13.372;2023-03-03T16:27:59;101206.91;;;0.96;100.00
68525;BME280;55524;51.380;13.372;2023-03-03T16:36:05;101206.09;;;1.01;100.00
68525;BME280;55524;51.380;13.372;2023-03-03T16:38:37;101207.94;;;1.08;100.00
68525;BME280;55524;51.380;13.372;2023-03-03T16:41:25;101200.94;;;1.04;100.00
68525;BME280;55524;51.380;13.372;2023-03-03T16:44:03;101204.41;;;1.04;100.00
68525;BME280;55524;51.380;13.372;2023-03-03T16:46:44;101209.72;;;1.12;100.00
68525;BME280;55524;51.380;13.372;2023-03-03T16:49:26;101212.22;;;1.04;100.00
68525;BME280;55524;51.380;13.372;2023-03-03T16:55:14;101207.88;;;1.03;100.00
68525;BME280;55524;51.380;13.372;2023-03-03T17:00:19;101221.84;;;1.10;100.00
68525;BME280;55524;51.380;13.372;2023-03-03T17:05:59;101213.97;;;1.07;100.00
68525;BME280;55524;51.380;13.372;2023-03-03T17:11:29;101203.56;;;1.07;100.00
68525;BME280;55524;51.380;13.372;2023-03-03T17:16:59;101214.88;;;1.07;100.00
68525;BME280;55524;51.380;13.372;2023-03-03T17:42:46;101219.38;;;1.20;100.00
68525;BME280;55524;51.380;13.372;2023-03-03T17:45:16;101220.19;;;1.15;100.00
68525;BME280;55524;51.380;13.372;2023-03-03T18:16:23;101224.53;;;1.17;100.00
68525;BME280;55524;51.380;13.372;2023-03-03T18:24:37;101211.56;;;1.19;100.00
68525;BME280;55524;51.380;13.372;2023-03-03T18:35:36;101216.78;;;1.20;100.00
68525;BME280;55524;51.380;13.372;2023-03-03T18:41:00;101222.00;;;1.20;100.00
68525;BME280;55524;51.380;13.372;2023-03-03T18:49:10;101226.44;;;1.29;100.00
68525;BME280;55524;51.380;13.372;2023-03-03T18:56:43;101226.28;;;1.18;100.00
68525;BME280;55524;51.380;13.372;2023-03-03T19:04:47;101221.97;;;1.19;100.00
68525;BME280;55524;51.380;13.372;2023-03-03T19:21:31;101227.19;;;1.20;100.00
68525;BME280;55524;51.380;13.372;2023-03-03T19:23:54;101233.22;;;1.16;100.00
68525;BME280;55524;51.380;13.372;2023-03-03T19:38:26;101227.13;;;1.16;100.00
68525;BME280;55524;51.380;13.372;2023-03-03T19:41:29;101222.75;;;1.13;100.00
68525;BME280;55524;51.380;13.372;2023-03-03T19:44:23;101225.41;;;1.15;100.00
68525;BME280;55524;51.380;13.372;2023-03-03T19:47:05;101227.97;;;1.13;100.00